createdAt,value
2024-01-11T00:01:13.452Z,66.32
2024-01-11T00:03:40.003Z,66.35
2024-01-11T00:06:06.642Z,66.23
2024-01-11T00:08:33.373Z,65.85
2024-01-11T00:10:59.971Z,65.93
2024-01-11T00:13:26.493Z,65.83
2024-01-11T00:15:53.162Z,66.17
2024-01-11T00:18:20.280Z,66.24
2024-01-11T00:20:46.919Z,66.29
2024-01-11T00:23:13.520Z,66.60
2024-01-11T00:25:40.107Z,66.70
2024-01-11T00:28:06.791Z,67.20
2024-01-11T00:30:33.531Z,66.60
2024-01-11T00:33:00.349Z,66.86
2024-01-11T00:35:27.201Z,66.88
2024-01-11T00:37:53.833Z,66.81
2024-01-11T00:40:20.401Z,66.88
2024-01-11T00:42:47.072Z,66.73
2024-01-11T00:45:13.613Z,66.85
2024-01-11T00:47:40.229Z,66.42
2024-01-11T00:50:07.246Z,66.27
2024-01-11T00:52:33.906Z,66.37
2024-01-11T00:55:00.386Z,66.31
2024-01-11T00:57:26.919Z,66.32
2024-01-11T00:59:53.428Z,66.44
2024-01-11T01:02:21.278Z,65.82
2024-01-11T01:04:47.795Z,65.70
2024-01-11T01:07:14.568Z,65.92
2024-01-11T01:09:41.166Z,65.79
2024-01-11T01:12:07.681Z,66.31
2024-01-11T01:14:34.667Z,66.17
2024-01-11T01:17:01.253Z,66.21
2024-01-11T01:19:27.948Z,65.46
2024-01-11T01:21:54.534Z,65.05
2024-01-11T01:24:21.046Z,65.13
2024-01-11T01:26:47.648Z,65.35
2024-01-11T01:29:15.504Z,65.46
2024-01-11T01:31:42.079Z,64.98
2024-01-11T01:34:08.890Z,65.87
2024-01-11T01:36:35.520Z,65.44
2024-01-11T01:39:02.002Z,65.65
2024-01-11T01:41:28.568Z,64.94
2024-01-11T01:43:55.160Z,65.78
2024-01-11T01:46:24.618Z,65.67
2024-01-11T01:48:53.056Z,65.53
2024-01-11T01:51:19.780Z,65.39
2024-01-11T01:53:46.661Z,65.88
2024-01-11T01:56:14.021Z,65.03
2024-01-11T01:58:40.739Z,66.13
2024-01-11T02:01:10.124Z,65.27
2024-01-11T02:03:38.876Z,65.29
2024-01-11T02:06:06.438Z,66.09
2024-01-11T02:08:33.128Z,66.24
2024-01-11T02:11:02.965Z,65.66
2024-01-11T02:13:29.539Z,65.79
2024-01-11T02:15:56.058Z,65.58
2024-01-11T02:18:22.652Z,65.73
2024-01-11T02:20:49.324Z,65.73
2024-01-11T02:23:18.656Z,66.23
2024-01-11T02:25:45.214Z,66.99
2024-01-11T02:28:12.474Z,66.15
2024-01-11T02:30:39.038Z,66.09
2024-01-11T02:33:06.100Z,67.11
2024-01-11T02:35:33.128Z,66.79
2024-01-11T02:38:00.900Z,66.30
2024-01-11T02:40:27.503Z,65.86
2024-01-11T02:42:54.025Z,65.71
2024-01-11T02:45:20.528Z,66.97
2024-01-11T02:47:47.182Z,66.23
2024-01-11T02:50:14.028Z,66.85
2024-01-11T02:52:40.696Z,66.90
2024-01-11T02:55:07.337Z,65.85
2024-01-11T02:57:33.948Z,66.46
2024-01-11T03:00:00.442Z,66.16
2024-01-11T03:02:27.048Z,65.15
2024-01-11T03:04:53.660Z,65.63
2024-01-11T03:07:20.521Z,66.02
2024-01-11T03:09:47.009Z,65.59
2024-01-11T03:12:13.492Z,65.60
2024-01-11T03:14:40.115Z,65.27
2024-01-11T03:17:06.880Z,65.33
2024-01-11T03:19:33.563Z,66.48
2024-01-11T03:22:04.156Z,66.80
2024-01-11T03:24:30.608Z,65.76
2024-01-11T03:26:57.183Z,66.58
2024-01-11T03:29:23.758Z,66.13
2024-01-11T03:31:50.287Z,65.25
2024-01-11T03:34:18.183Z,66.44
2024-01-11T03:36:44.791Z,66.13
2024-01-11T03:39:11.276Z,65.34
2024-01-11T03:41:37.842Z,66.56
2024-01-11T03:44:04.737Z,65.32
2024-01-11T03:46:31.408Z,65.77
2024-01-11T03:48:58.149Z,66.53
2024-01-11T03:51:24.763Z,65.82
2024-01-11T03:53:51.308Z,65.67
2024-01-11T03:56:17.986Z,66.27
2024-01-11T03:58:46.194Z,66.35
2024-01-11T04:01:13.004Z,65.17
2024-01-11T04:03:39.925Z,66.64
2024-01-11T04:06:07.456Z,66.05
2024-01-11T04:08:34.332Z,65.75
2024-01-11T04:11:05.281Z,65.73
2024-01-11T04:13:32.011Z,65.17
2024-01-11T04:15:58.516Z,66.57
2024-01-11T04:18:25.526Z,65.13
2024-01-11T04:20:52.126Z,66.57
2024-01-11T04:23:18.710Z,66.64
2024-01-11T04:25:45.348Z,65.84
2024-01-11T04:28:12.048Z,66.66
2024-01-11T04:30:38.665Z,66.72
2024-01-11T04:33:05.467Z,65.53
2024-01-11T04:35:32.151Z,66.45
2024-01-11T04:37:58.701Z,66.69
2024-01-11T04:40:25.292Z,66.28
2024-01-11T04:42:51.900Z,65.28
2024-01-11T04:45:18.403Z,65.33
2024-01-11T04:47:45.073Z,65.31
2024-01-11T04:50:11.767Z,65.37
2024-01-11T04:52:38.337Z,65.40
2024-01-11T04:55:05.059Z,66.21
2024-01-11T04:57:31.578Z,65.96
2024-01-11T04:59:59.704Z,65.63
2024-01-11T05:02:28.838Z,66.03
2024-01-11T05:04:55.622Z,66.50
2024-01-11T05:07:22.153Z,65.94
2024-01-11T05:09:48.625Z,65.40
2024-01-11T05:12:15.133Z,66.10
2024-01-11T05:14:41.727Z,65.29
2024-01-11T05:17:09.056Z,66.51
2024-01-11T05:19:35.765Z,65.77
2024-01-11T05:22:02.378Z,65.54
2024-01-11T05:24:29.361Z,65.90
2024-01-11T05:26:55.884Z,66.08
2024-01-11T05:29:22.434Z,66.53
2024-01-11T05:31:49.280Z,66.98
2024-01-11T05:34:16.177Z,67.05
2024-01-11T05:36:42.949Z,66.77
2024-01-11T05:39:09.457Z,66.58
2024-01-11T05:41:36.111Z,66.41
2024-01-11T05:44:02.686Z,66.25
2024-01-11T05:46:30.519Z,66.29
2024-01-11T05:48:58.880Z,66.26
2024-01-11T05:51:25.431Z,66.10
2024-01-11T05:53:51.961Z,66.01
2024-01-11T05:56:20.407Z,66.15
2024-01-11T05:58:46.997Z,66.00
2024-01-11T06:01:13.809Z,66.29
2024-01-11T06:03:40.629Z,66.47
2024-01-11T06:06:08.034Z,66.50
2024-01-11T06:08:34.730Z,66.56
2024-01-11T06:11:01.572Z,66.45
2024-01-11T06:13:28.845Z,66.41
2024-01-11T06:15:55.367Z,66.73
2024-01-11T06:18:22.255Z,66.50
2024-01-11T06:20:49.330Z,66.56
2024-01-11T06:23:18.085Z,66.31
2024-01-11T06:25:46.211Z,66.77
2024-01-11T06:28:13.256Z,66.71
2024-01-11T06:30:39.913Z,66.67
2024-01-11T06:33:06.726Z,66.75
2024-01-11T06:35:33.421Z,66.93
2024-01-11T06:37:59.998Z,67.05
2024-01-11T06:40:26.963Z,67.07
2024-01-11T06:42:53.472Z,66.73
2024-01-11T06:45:20.662Z,67.13
2024-01-11T06:47:47.931Z,67.16
2024-01-11T06:50:14.926Z,66.87
2024-01-11T06:52:41.537Z,67.07
2024-01-11T06:55:08.793Z,67.30
2024-01-11T06:57:35.345Z,67.49
2024-01-11T07:00:02.057Z,67.15
2024-01-11T07:02:28.990Z,67.21
2024-01-11T07:04:55.616Z,67.21
2024-01-11T07:07:22.145Z,67.61
2024-01-11T07:09:48.655Z,67.67
2024-01-11T07:12:15.231Z,67.75
2024-01-11T07:14:41.879Z,67.70
2024-01-11T07:17:08.424Z,67.47
2024-01-11T07:19:35.076Z,67.43
2024-01-11T07:22:01.630Z,67.75
2024-01-11T07:24:28.119Z,68.23
2024-01-11T07:26:54.993Z,67.94
2024-01-11T07:29:21.878Z,68.00
2024-01-11T07:31:48.397Z,67.83
2024-01-11T07:34:15.119Z,68.16
2024-01-11T07:36:41.721Z,68.07
2024-01-11T07:39:08.248Z,68.42
2024-01-11T07:41:34.856Z,68.59
2024-01-11T07:44:01.524Z,68.66
2024-01-11T07:46:35.689Z,68.62
2024-01-11T07:49:06.266Z,68.45
2024-01-11T07:51:34.088Z,67.97
2024-01-11T07:54:00.568Z,68.20
2024-01-11T07:56:27.259Z,67.81
2024-01-11T07:58:54.231Z,67.99
2024-01-11T08:01:20.914Z,68.42
2024-01-11T08:03:48.479Z,68.31
2024-01-11T08:06:15.324Z,68.38
2024-01-11T08:08:42.255Z,68.38
2024-01-11T08:11:08.952Z,68.36
2024-01-11T08:13:35.917Z,68.53
2024-01-11T08:16:04.614Z,68.60
2024-01-11T08:18:34.024Z,68.24
2024-01-11T08:21:00.578Z,68.19
2024-01-11T08:23:27.690Z,69.01
2024-01-11T08:25:54.275Z,68.75
2024-01-11T08:28:21.695Z,69.00
2024-01-11T08:30:48.543Z,68.36
2024-01-11T08:33:15.414Z,69.32
2024-01-11T08:35:43.053Z,68.60
2024-01-11T08:38:09.918Z,69.38
2024-01-11T08:40:36.940Z,69.32
2024-01-11T08:43:04.371Z,69.14
2024-01-11T08:45:31.132Z,68.85
2024-01-11T08:47:58.057Z,68.94
2024-01-11T08:50:26.016Z,69.30
2024-01-11T08:52:56.525Z,69.05
2024-01-11T08:55:23.304Z,69.48
2024-01-11T08:57:49.804Z,68.88
2024-01-11T09:00:19.991Z,69.79
2024-01-11T09:02:47.214Z,69.14
2024-01-11T09:05:17.490Z,69.41
2024-01-11T09:07:44.572Z,69.16
2024-01-11T09:10:12.259Z,68.68
2024-01-11T09:12:39.339Z,68.79
2024-01-11T09:15:06.233Z,68.50
2024-01-11T09:17:33.850Z,68.52
2024-01-11T09:20:00.739Z,68.84
2024-01-11T09:22:27.508Z,68.77
2024-01-11T09:24:54.014Z,68.18
2024-01-11T09:27:20.567Z,68.52
2024-01-11T09:29:47.409Z,68.72
2024-01-11T09:32:14.366Z,68.82
2024-01-11T09:34:41.038Z,68.47
2024-01-11T09:37:07.556Z,68.56
2024-01-11T09:39:34.152Z,68.66
2024-01-11T09:42:08.399Z,68.63
2024-01-11T09:44:35.333Z,69.04
2024-01-11T09:47:03.950Z,69.23
2024-01-11T09:49:31.961Z,69.77
2024-01-11T09:51:58.592Z,69.38
2024-01-11T09:54:26.305Z,69.31
2024-01-11T09:56:55.961Z,69.86
2024-01-11T09:59:25.405Z,69.20
2024-01-11T10:01:52.454Z,69.98
2024-01-11T10:04:19.030Z,69.51
2024-01-11T10:06:46.031Z,69.39
2024-01-11T10:09:14.008Z,69.61
2024-01-11T10:11:40.586Z,69.12
2024-01-11T10:14:07.779Z,69.04
2024-01-11T10:16:34.454Z,69.42
2024-01-11T10:19:01.208Z,69.36
2024-01-11T10:21:28.211Z,69.98
2024-01-11T10:23:54.732Z,70.40
2024-01-11T10:26:22.642Z,69.04
2024-01-11T10:28:49.497Z,69.37
2024-01-11T10:31:19.275Z,68.86
2024-01-11T10:33:46.378Z,69.72
2024-01-11T10:36:13.044Z,69.49
2024-01-11T10:38:40.590Z,68.96
2024-01-11T10:41:08.135Z,68.72
2024-01-11T10:43:38.601Z,69.28
2024-01-11T10:46:07.727Z,69.25
2024-01-11T10:48:39.032Z,68.85
2024-01-11T10:51:07.168Z,69.25
2024-01-11T10:53:47.659Z,68.49
2024-01-11T10:56:19.466Z,68.90
2024-01-11T10:58:47.783Z,69.34
2024-01-11T11:01:14.937Z,69.61
2024-01-11T11:03:45.459Z,70.10
2024-01-11T11:06:12.411Z,69.98
2024-01-11T11:08:39.354Z,69.95
2024-01-11T11:11:07.352Z,69.74
2024-01-11T11:13:36.010Z,70.28
2024-01-11T11:16:04.926Z,70.21
2024-01-11T11:18:32.460Z,70.06
2024-01-11T11:20:59.056Z,69.81
2024-01-11T11:23:25.774Z,70.21
2024-01-11T11:25:55.187Z,69.83
2024-01-11T11:28:21.691Z,70.32
2024-01-11T11:30:50.814Z,71.05
2024-01-11T11:33:22.984Z,70.48
2024-01-11T11:35:53.270Z,70.36
2024-01-11T11:38:24.375Z,70.86
2024-01-11T11:40:53.609Z,71.09
2024-01-11T11:43:21.995Z,70.34
2024-01-11T11:45:49.623Z,70.36
2024-01-11T11:48:36.719Z,70.68
2024-01-11T11:51:16.422Z,70.65
2024-01-11T11:53:46.635Z,70.44
2024-01-11T11:56:16.068Z,70.55
2024-01-11T11:58:43.995Z,70.88
2024-01-11T12:01:10.852Z,70.56
2024-01-11T12:03:39.624Z,71.00
2024-01-11T12:06:11.748Z,71.07
2024-01-11T12:08:38.571Z,70.95
2024-01-11T12:11:06.512Z,70.78
2024-01-11T12:13:41.166Z,70.63
2024-01-11T12:16:07.824Z,70.94
2024-01-11T12:18:34.702Z,70.39
2024-01-11T12:21:01.386Z,70.92
2024-01-11T12:23:31.129Z,70.45
2024-01-11T12:26:02.697Z,70.78
2024-01-11T12:28:29.287Z,70.43
2024-01-11T12:30:55.915Z,70.96
2024-01-11T12:33:23.343Z,70.74
2024-01-11T12:35:50.167Z,70.48
2024-01-11T12:38:16.754Z,69.99
2024-01-11T12:40:43.370Z,70.64
2024-01-11T12:43:09.949Z,69.98
2024-01-11T12:45:36.772Z,70.39
2024-01-11T12:48:04.777Z,70.44
2024-01-11T12:50:34.944Z,70.49
2024-01-11T12:53:21.100Z,70.43
2024-01-11T12:56:09.391Z,70.62
2024-01-11T12:58:36.157Z,70.66
2024-01-11T13:01:03.917Z,70.74
2024-01-11T13:03:31.663Z,70.48
2024-01-11T13:05:58.339Z,70.48
2024-01-11T13:08:25.134Z,70.67
2024-01-11T13:10:51.754Z,70.32
2024-01-11T13:13:18.356Z,70.44
2024-01-11T13:15:46.130Z,70.21
2024-01-11T13:18:12.904Z,70.22
2024-01-11T13:20:39.728Z,70.52
2024-01-11T13:23:17.125Z,70.15
2024-01-11T13:25:45.572Z,70.71
2024-01-11T13:28:12.941Z,70.70
2024-01-11T13:30:42.962Z,70.91
2024-01-11T13:33:10.654Z,70.73
2024-01-11T13:35:38.071Z,70.80
2024-01-11T13:38:05.087Z,70.68
2024-01-11T13:40:32.293Z,71.41
2024-01-11T13:42:59.188Z,71.28
2024-01-11T13:45:26.713Z,70.75
2024-01-11T13:47:57.153Z,70.81
2024-01-11T13:50:27.113Z,71.51
2024-01-11T13:52:54.157Z,71.66
2024-01-11T13:55:22.897Z,71.57
2024-01-11T13:57:50.969Z,71.46
2024-01-11T14:00:19.579Z,71.66
2024-01-11T14:02:47.579Z,71.46
2024-01-11T14:05:15.886Z,71.16
2024-01-11T14:07:43.694Z,71.80
2024-01-11T14:10:10.573Z,71.83
2024-01-11T14:12:37.497Z,71.29
2024-01-11T14:15:05.300Z,71.58
2024-01-11T14:17:32.880Z,71.71
2024-01-11T14:20:00.807Z,71.67
2024-01-11T14:22:27.580Z,72.08
2024-01-11T14:24:54.162Z,72.04
2024-01-11T14:27:22.160Z,72.10
2024-01-11T14:29:49.350Z,72.06
2024-01-11T14:32:25.600Z,72.19
2024-01-11T14:35:04.390Z,72.11
2024-01-11T14:37:34.948Z,72.64
2024-01-11T14:40:01.610Z,72.64
2024-01-11T14:42:28.701Z,72.12
2024-01-11T14:44:55.549Z,72.58
2024-01-11T14:47:22.561Z,72.62
2024-01-11T14:49:49.155Z,72.69
2024-01-11T14:52:17.971Z,72.21
2024-01-11T14:54:45.015Z,72.51
2024-01-11T14:57:11.794Z,72.62
2024-01-11T14:59:38.368Z,72.85
2024-01-11T15:02:05.842Z,72.69
2024-01-11T15:04:32.954Z,72.96
2024-01-11T15:06:59.560Z,72.59
2024-01-11T15:09:27.157Z,72.79
2024-01-11T15:11:54.067Z,72.82
2024-01-11T15:14:20.750Z,72.98
2024-01-11T15:16:49.134Z,72.67
2024-01-11T15:19:15.993Z,72.83
2024-01-11T15:21:47.646Z,72.89
2024-01-11T15:24:16.939Z,72.91
2024-01-11T15:26:43.743Z,73.04
2024-01-11T15:29:10.620Z,72.99
2024-01-11T15:31:39.782Z,73.18
2024-01-11T15:34:07.058Z,72.74
2024-01-11T15:36:33.698Z,72.90
2024-01-11T15:39:08.236Z,73.21
2024-01-11T15:41:43.943Z,72.98
2024-01-11T15:44:10.778Z,73.06
2024-01-11T15:46:37.303Z,73.09
2024-01-11T15:49:04.030Z,73.22
2024-01-11T15:51:30.631Z,72.97
2024-01-11T15:53:57.361Z,73.30
2024-01-11T15:56:23.939Z,73.05
2024-01-11T15:58:50.472Z,73.12
2024-01-11T16:01:17.048Z,73.45
2024-01-11T16:03:43.825Z,73.32
2024-01-11T16:06:10.559Z,73.04
2024-01-11T16:08:37.283Z,73.06
2024-01-11T16:11:04.034Z,73.25
2024-01-11T16:13:30.583Z,73.22
2024-01-11T16:15:58.288Z,73.46
2024-01-11T16:18:25.824Z,73.73
2024-01-11T16:20:53.184Z,73.35
2024-01-11T16:23:19.854Z,73.47
2024-01-11T16:25:46.557Z,73.49
2024-01-11T16:28:13.518Z,73.31
2024-01-11T16:30:40.086Z,73.42
2024-01-11T16:33:06.618Z,73.52
2024-01-11T16:35:38.922Z,73.28
2024-01-11T16:38:08.140Z,73.38
2024-01-11T16:40:34.940Z,73.33
2024-01-11T16:43:01.553Z,73.49
2024-01-11T16:45:29.847Z,73.35
2024-01-11T16:47:56.445Z,73.21
2024-01-11T16:50:24.914Z,73.04
2024-01-11T16:52:51.428Z,73.54
2024-01-11T16:55:19.190Z,73.21
2024-01-11T16:57:45.684Z,73.39
2024-01-11T17:00:12.711Z,73.32
2024-01-11T17:02:39.344Z,73.59
2024-01-11T17:05:06.115Z,72.74
2024-01-11T17:07:32.717Z,73.46
2024-01-11T17:09:59.232Z,73.52
2024-01-11T17:12:27.516Z,73.51
2024-01-11T17:14:57.524Z,73.53
2024-01-11T17:17:24.541Z,73.70
2024-01-11T17:19:51.099Z,73.23
2024-01-11T17:22:17.814Z,73.46
2024-01-11T17:24:44.446Z,73.37
2024-01-11T17:27:15.699Z,73.64
2024-01-11T17:29:43.167Z,73.83
2024-01-11T17:32:09.865Z,73.66
2024-01-11T17:34:36.611Z,73.60
2024-01-11T17:37:03.150Z,73.62
2024-01-11T17:39:30.313Z,73.75
2024-01-11T17:42:00.627Z,73.83
2024-01-11T17:44:28.569Z,73.63
2024-01-11T17:46:55.254Z,73.62
2024-01-11T17:49:21.916Z,73.77
2024-01-11T17:51:48.648Z,73.58
2024-01-11T17:54:16.759Z,73.74
2024-01-11T17:56:43.367Z,73.61
2024-01-11T17:59:10.263Z,73.57
2024-01-11T18:01:36.950Z,73.67
2024-01-11T18:04:03.703Z,73.59
2024-01-11T18:06:31.229Z,73.65
2024-01-11T18:08:57.989Z,73.50
2024-01-11T18:11:24.665Z,73.58
2024-01-11T18:13:51.214Z,73.47
2024-01-11T18:16:17.738Z,73.60
2024-01-11T18:18:44.908Z,73.24
2024-01-11T18:21:11.578Z,73.25
2024-01-11T18:23:38.227Z,73.27
2024-01-11T18:26:04.817Z,73.51
2024-01-11T18:28:31.370Z,73.56
2024-01-11T18:30:57.939Z,73.55
2024-01-11T18:33:26.079Z,73.48
2024-01-11T18:35:54.502Z,73.41
2024-01-11T18:38:22.460Z,73.24
2024-01-11T18:40:49.318Z,73.19
2024-01-11T18:43:18.644Z,73.32
2024-01-11T18:45:46.050Z,73.46
2024-01-11T18:48:13.635Z,73.36
2024-01-11T18:50:40.591Z,73.43
2024-01-11T18:53:07.650Z,73.43
2024-01-11T18:55:34.375Z,73.19
2024-01-11T18:58:00.938Z,73.55
2024-01-11T19:00:27.462Z,73.46
2024-01-11T19:02:54.181Z,73.66
2024-01-11T19:05:21.095Z,73.31
2024-01-11T19:07:47.922Z,73.94
2024-01-11T19:10:14.531Z,73.68
2024-01-11T19:12:41.126Z,73.65
2024-01-11T19:15:08.261Z,73.48
2024-01-11T19:17:35.296Z,73.14
2024-01-11T19:20:02.306Z,73.73
2024-01-11T19:22:28.861Z,73.42
2024-01-11T19:24:55.412Z,73.70
2024-01-11T19:27:23.240Z,73.71
2024-01-11T19:29:49.794Z,73.47
2024-01-11T19:32:16.443Z,73.83
2024-01-11T19:34:43.302Z,73.57
2024-01-11T19:37:11.594Z,73.69
2024-01-11T19:39:38.844Z,73.50
2024-01-11T19:42:05.465Z,73.83
2024-01-11T19:44:32.020Z,73.61
2024-01-11T19:46:58.576Z,73.58
2024-01-11T19:49:25.307Z,73.41
2024-01-11T19:51:51.957Z,73.51
2024-01-11T19:54:18.502Z,73.35
2024-01-11T19:56:45.087Z,73.52
2024-01-11T19:59:11.731Z,73.75
2024-01-11T20:01:38.306Z,73.39
2024-01-11T20:04:04.989Z,73.76
2024-01-11T20:06:31.639Z,73.56
2024-01-11T20:08:59.017Z,73.45
2024-01-11T20:11:25.610Z,73.54
2024-01-11T20:13:52.277Z,73.43
2024-01-11T20:16:18.780Z,73.35
2024-01-11T20:18:46.009Z,73.43
2024-01-11T20:21:13.905Z,73.38
2024-01-11T20:23:44.925Z,73.53
2024-01-11T20:26:12.681Z,73.84
2024-01-11T20:28:39.803Z,73.53
2024-01-11T20:31:06.477Z,73.54
2024-01-11T20:33:33.253Z,73.46
2024-01-11T20:36:03.897Z,73.62
2024-01-11T20:38:32.574Z,73.67
2024-01-11T20:40:59.100Z,73.79
2024-01-11T20:43:26.590Z,73.42
2024-01-11T20:45:53.563Z,73.36
2024-01-11T20:48:21.157Z,73.36
2024-01-11T20:50:48.551Z,73.64
2024-01-11T20:53:15.189Z,73.63
2024-01-11T20:55:43.823Z,73.74
2024-01-11T20:58:11.337Z,73.67
2024-01-11T21:00:38.301Z,73.41
2024-01-11T21:03:05.029Z,73.79
2024-01-11T21:05:32.285Z,73.84
2024-01-11T21:08:01.002Z,73.80
2024-01-11T21:10:27.767Z,73.77
2024-01-11T21:12:54.343Z,73.76
2024-01-11T21:15:20.837Z,74.04
2024-01-11T21:17:47.636Z,73.62
2024-01-11T21:20:14.349Z,73.83
2024-01-11T21:22:41.244Z,73.63
2024-01-11T21:25:08.040Z,73.82
2024-01-11T21:27:34.705Z,73.87
2024-01-11T21:30:01.271Z,73.90
2024-01-11T21:32:28.252Z,73.58
2024-01-11T21:34:54.830Z,73.68
2024-01-11T21:37:21.380Z,73.76
2024-01-11T21:39:47.879Z,74.08
2024-01-11T21:42:14.429Z,74.06
2024-01-11T21:44:40.983Z,74.07
2024-01-11T21:47:07.527Z,74.05
2024-01-11T21:49:34.125Z,74.34
2024-01-11T21:52:00.656Z,74.17
2024-01-11T21:54:27.154Z,73.97
2024-01-11T21:56:53.689Z,73.93
2024-01-11T21:59:20.281Z,74.02
2024-01-11T22:01:46.873Z,73.92
2024-01-11T22:04:13.560Z,73.60
2024-01-11T22:06:40.265Z,74.03
2024-01-11T22:09:06.808Z,74.35
2024-01-11T22:11:35.720Z,74.02
2024-01-11T22:14:05.228Z,74.21
2024-01-11T22:16:32.421Z,74.17
2024-01-11T22:18:59.172Z,74.14
2024-01-11T22:21:28.551Z,73.97
2024-01-11T22:23:55.953Z,74.24
2024-01-11T22:26:22.922Z,74.15
2024-01-11T22:28:49.488Z,73.75
2024-01-11T22:31:18.259Z,74.12
2024-01-11T22:33:46.462Z,74.08
2024-01-11T22:36:13.187Z,74.11
2024-01-11T22:38:39.721Z,74.58
2024-01-11T22:41:09.358Z,74.13
2024-01-11T22:43:35.963Z,74.07
2024-01-11T22:46:03.314Z,73.95
2024-01-11T22:48:30.022Z,74.22
2024-01-11T22:50:56.741Z,74.05
2024-01-11T22:53:23.354Z,74.11
2024-01-11T22:55:49.946Z,73.87
2024-01-11T22:58:16.433Z,74.45
2024-01-11T23:00:42.999Z,74.25
2024-01-11T23:03:09.625Z,73.88
2024-01-11T23:05:36.466Z,74.11
2024-01-11T23:08:03.340Z,73.91
2024-01-11T23:10:30.197Z,74.34
2024-01-11T23:12:56.703Z,74.40
2024-01-11T23:15:23.467Z,74.05
2024-01-11T23:17:50.187Z,74.24
2024-01-11T23:20:16.884Z,74.44
2024-01-11T23:22:43.559Z,74.34
2024-01-11T23:25:10.086Z,74.20
2024-01-11T23:27:36.634Z,74.37
2024-01-11T23:30:04.124Z,74.59
2024-01-11T23:32:31.100Z,74.62
2024-01-11T23:34:58.043Z,74.70
2024-01-11T23:37:24.692Z,74.42
2024-01-11T23:39:51.216Z,74.42
2024-01-11T23:42:17.728Z,74.21
2024-01-11T23:44:44.421Z,74.20
2024-01-11T23:47:11.019Z,74.36
2024-01-11T23:49:37.639Z,74.53
2024-01-11T23:52:04.318Z,74.78
2024-01-11T23:54:30.808Z,74.54
2024-01-11T23:56:57.523Z,74.42
2024-01-11T23:59:24.727Z,74.71
